sensor_id;sensor_type;location;lat;lon;timestamp;P1;durP1;ratioP1;P2;durP2;ratioP2
20729;SDS011;10526;50.850;12.928;2023-04-30T00:00:49;19.95;;;10.35;;
20729;SDS011;10526;50.850;12.928;2023-04-30T00:05:11;18.92;;;10.68;;
20729;SDS011;10526;50.850;12.928;2023-04-30T00:09:33;21.25;;;10.20;;
20729;SDS011;10526;50.850;12.928;2023-04-30T00:13:56;21.85;;;10.30;;
20729;SDS011;10526;50.850;12.928;2023-04-30T00:18:18;20.05;;;10.75;;
20729;SDS011;10526;50.850;12.928;2023-04-30T00:22:40;25.13;;;10.55;;
20729;SDS011;10526;50.850;12.928;2023-04-30T00:27:02;21.98;;;11.88;;
20729;SDS011;10526;50.850;12.928;2023-04-30T00:31:25;21.17;;;11.43;;
20729;SDS011;10526;50.850;12.928;2023-04-30T00:35:47;21.05;;;10.55;;
20729;SDS011;10526;50.850;12.928;2023-04-30T00:40:09;20.67;;;11.25;;
20729;SDS011;10526;50.850;12.928;2023-04-30T00:44:32;20.25;;;10.00;;
20729;SDS011;10526;50.850;12.928;2023-04-30T00:48:54;20.17;;;11.02;;
20729;SDS011;10526;50.850;12.928;2023-04-30T00:53:17;19.77;;;10.82;;
20729;SDS011;10526;50.850;12.928;2023-04-30T00:57:41;20.02;;;10.50;;
20729;SDS011;10526;50.850;12.928;2023-04-30T01:02:03;22.88;;;9.48;;
20729;SDS011;10526;50.850;12.928;2023-04-30T01:06:25;19.20;;;9.48;;
20729;SDS011;10526;50.850;12.928;2023-04-30T01:11:03;17.80;;;9.63;;
20729;SDS011;10526;50.850;12.928;2023-04-30T01:15:58;17.67;;;8.82;;
20729;SDS011;10526;50.850;12.928;2023-04-30T01:20:23;16.08;;;8.18;;
20729;SDS011;10526;50.850;12.928;2023-04-30T01:25:00;17.63;;;8.65;;
20729;SDS011;10526;50.850;12.928;2023-04-30T01:29:55;15.70;;;8.25;;
20729;SDS011;10526;50.850;12.928;2023-04-30T01:34:19;19.42;;;8.45;;
20729;SDS011;10526;50.850;12.928;2023-04-30T01:39:02;21.13;;;8.77;;
20729;SDS011;10526;50.850;12.928;2023-04-30T01:48:41;19.52;;;9.48;;
20729;SDS011;10526;50.850;12.928;2023-04-30T01:53:22;21.50;;;10.30;;
20729;SDS011;10526;50.850;12.928;2023-04-30T01:58:04;18.75;;;8.55;;
20729;SDS011;10526;50.850;12.928;2023-04-30T02:02:31;21.77;;;9.30;;
20729;SDS011;10526;50.850;12.928;2023-04-30T02:06:53;22.55;;;9.80;;
20729;SDS011;10526;50.850;12.928;2023-04-30T02:11:16;18.55;;;9.10;;
20729;SDS011;10526;50.850;12.928;2023-04-30T02:15:38;16.77;;;8.30;;
20729;SDS011;10526;50.850;12.928;2023-04-30T02:20:01;21.88;;;8.10;;
20729;SDS011;10526;50.850;12.928;2023-04-30T02:24:23;16.02;;;7.32;;
20729;SDS011;10526;50.850;12.928;2023-04-30T02:28:46;16.42;;;6.53;;
20729;SDS011;10526;50.850;12.928;2023-04-30T02:33:08;15.40;;;6.00;;
20729;SDS011;10526;50.850;12.928;2023-04-30T02:37:32;18.75;;;6.75;;
20729;SDS011;10526;50.850;12.928;2023-04-30T02:41:55;14.82;;;6.40;;
20729;SDS011;10526;50.850;12.928;2023-04-30T02:46:17;14.43;;;6.68;;
20729;SDS011;10526;50.850;12.928;2023-04-30T02:50:39;17.33;;;7.25;;
20729;SDS011;10526;50.850;12.928;2023-04-30T02:55:01;13.30;;;6.25;;
20729;SDS011;10526;50.850;12.928;2023-04-30T02:59:24;13.07;;;5.32;;
20729;SDS011;10526;50.850;12.928;2023-04-30T03:03:47;20.83;;;11.02;;
20729;SDS011;10526;50.850;12.928;2023-04-30T03:08:09;22.30;;;6.82;;
20729;SDS011;10526;50.850;12.928;2023-04-30T03:12:32;13.85;;;5.63;;
20729;SDS011;10526;50.850;12.928;2023-04-30T03:16:54;12.40;;;5.45;;
20729;SDS011;10526;50.850;12.928;2023-04-30T03:21:16;14.13;;;6.07;;
20729;SDS011;10526;50.850;12.928;2023-04-30T03:25:39;14.70;;;5.60;;
20729;SDS011;10526;50.850;12.928;2023-04-30T03:30:01;14.75;;;5.45;;
20729;SDS011;10526;50.850;12.928;2023-04-30T03:34:23;13.52;;;4.97;;
20729;SDS011;10526;50.850;12.928;2023-04-30T03:38:46;13.30;;;5.45;;
20729;SDS011;10526;50.850;12.928;2023-04-30T03:43:08;13.93;;;5.50;;
20729;SDS011;10526;50.850;12.928;2023-04-30T03:47:30;16.67;;;6.10;;
20729;SDS011;10526;50.850;12.928;2023-04-30T03:51:53;12.77;;;5.30;;
20729;SDS011;10526;50.850;12.928;2023-04-30T03:56:15;12.02;;;5.28;;
20729;SDS011;10526;50.850;12.928;2023-04-30T06:24:01;12.82;;;3.65;;
20729;SDS011;10526;50.850;12.928;2023-04-30T06:28:24;12.13;;;3.80;;
20729;SDS011;10526;50.850;12.928;2023-04-30T06:32:46;13.15;;;3.70;;
20729;SDS011;10526;50.850;12.928;2023-04-30T06:37:08;17.98;;;4.20;;
20729;SDS011;10526;50.850;12.928;2023-04-30T06:41:30;9.70;;;3.90;;
20729;SDS011;10526;50.850;12.928;2023-04-30T06:45:52;8.13;;;3.60;;
20729;SDS011;10526;50.850;12.928;2023-04-30T06:50:14;13.27;;;4.90;;
20729;SDS011;10526;50.850;12.928;2023-04-30T06:54:37;16.48;;;4.50;;
20729;SDS011;10526;50.850;12.928;2023-04-30T06:58:59;12.43;;;4.25;;
20729;SDS011;10526;50.850;12.928;2023-04-30T07:03:21;12.98;;;4.95;;
20729;SDS011;10526;50.850;12.928;2023-04-30T07:07:43;12.27;;;4.00;;
20729;SDS011;10526;50.850;12.928;2023-04-30T07:12:06;14.82;;;4.43;;
20729;SDS011;10526;50.850;12.928;2023-04-30T07:16:28;9.10;;;3.88;;
20729;SDS011;10526;50.850;12.928;2023-04-30T07:20:53;13.95;;;5.10;;
20729;SDS011;10526;50.850;12.928;2023-04-30T07:25:15;10.48;;;4.25;;
20729;SDS011;10526;50.850;12.928;2023-04-30T07:29:38;12.95;;;5.03;;
20729;SDS011;10526;50.850;12.928;2023-04-30T07:34:00;10.27;;;4.10;;
20729;SDS011;10526;50.850;12.928;2023-04-30T07:38:22;11.82;;;4.05;;
20729;SDS011;10526;50.850;12.928;2023-04-30T07:42:45;10.18;;;4.03;;
20729;SDS011;10526;50.850;12.928;2023-04-30T07:47:07;14.98;;;4.13;;
20729;SDS011;10526;50.850;12.928;2023-04-30T07:51:30;9.07;;;3.67;;
20729;SDS011;10526;50.850;12.928;2023-04-30T07:55:53;11.82;;;4.18;;
20729;SDS011;10526;50.850;12.928;2023-04-30T08:00:15;9.82;;;3.83;;
20729;SDS011;10526;50.850;12.928;2023-04-30T08:04:38;13.43;;;4.03;;
20729;SDS011;10526;50.850;12.928;2023-04-30T08:09:00;12.80;;;3.65;;
20729;SDS011;10526;50.850;12.928;2023-04-30T08:13:22;15.48;;;3.78;;
20729;SDS011;10526;50.850;12.928;2023-04-30T08:17:44;11.98;;;3.42;;
20729;SDS011;10526;50.850;12.928;2023-04-30T08:22:06;11.20;;;3.42;;
20729;SDS011;10526;50.850;12.928;2023-04-30T08:26:28;13.65;;;3.33;;
20729;SDS011;10526;50.850;12.928;2023-04-30T08:30:51;9.65;;;3.30;;
20729;SDS011;10526;50.850;12.928;2023-04-30T08:35:13;11.07;;;3.38;;
20729;SDS011;10526;50.850;12.928;2023-04-30T08:39:37;15.57;;;3.63;;
20729;SDS011;10526;50.850;12.928;2023-04-30T08:44:00;10.10;;;3.03;;
20729;SDS011;10526;50.850;12.928;2023-04-30T08:48:27;8.45;;;3.33;;
20729;SDS011;10526;50.850;12.928;2023-04-30T08:52:49;11.35;;;2.78;;
20729;SDS011;10526;50.850;12.928;2023-04-30T08:57:12;10.93;;;2.78;;
20729;SDS011;10526;50.850;12.928;2023-04-30T09:01:34;6.90;;;2.50;;
20729;SDS011;10526;50.850;12.928;2023-04-30T09:05:56;5.65;;;2.50;;
20729;SDS011;10526;50.850;12.928;2023-04-30T09:10:19;11.50;;;2.63;;
20729;SDS011;10526;50.850;12.928;2023-04-30T09:14:59;9.57;;;3.10;;
20729;SDS011;10526;50.850;12.928;2023-04-30T09:19:25;11.98;;;2.55;;
20729;SDS011;10526;50.850;12.928;2023-04-30T09:23:57;7.22;;;2.72;;
20729;SDS011;10526;50.850;12.928;2023-04-30T09:28:26;6.82;;;2.50;;
20729;SDS011;10526;50.850;12.928;2023-04-30T09:32:55;9.18;;;2.88;;
20729;SDS011;10526;50.850;12.928;2023-04-30T09:37:17;6.78;;;2.53;;
20729;SDS011;10526;50.850;12.928;2023-04-30T09:41:40;7.35;;;2.58;;
20729;SDS011;10526;50.850;12.928;2023-04-30T09:46:02;4.80;;;2.10;;
20729;SDS011;10526;50.850;12.928;2023-04-30T09:50:25;8.18;;;2.63;;
20729;SDS011;10526;50.850;12.928;2023-04-30T09:54:47;14.38;;;2.80;;
20729;SDS011;10526;50.850;12.928;2023-04-30T09:59:10;7.22;;;1.88;;
20729;SDS011;10526;50.850;12.928;2023-04-30T10:03:34;11.73;;;2.90;;
20729;SDS011;10526;50.850;12.928;2023-04-30T10:08:06;7.97;;;2.88;;
20729;SDS011;10526;50.850;12.928;2023-04-30T10:12:49;7.88;;;2.67;;
20729;SDS011;10526;50.850;12.928;2023-04-30T10:17:15;6.82;;;2.22;;
20729;SDS011;10526;50.850;12.928;2023-04-30T10:21:39;10.77;;;2.58;;
20729;SDS011;10526;50.850;12.928;2023-04-30T10:26:03;8.27;;;2.70;;
20729;SDS011;10526;50.850;12.928;2023-04-30T10:30:25;10.80;;;3.05;;
20729;SDS011;10526;50.850;12.928;2023-04-30T10:39:41;9.77;;;2.22;;
20729;SDS011;10526;50.850;12.928;2023-04-30T10:44:03;9.45;;;2.63;;
20729;SDS011;10526;50.850;12.928;2023-04-30T10:48:28;11.18;;;3.40;;
20729;SDS011;10526;50.850;12.928;2023-04-30T10:53:03;10.93;;;2.42;;
20729;SDS011;10526;50.850;12.928;2023-04-30T10:57:26;9.30;;;2.70;;
20729;SDS011;10526;50.850;12.928;2023-04-30T11:01:58;10.38;;;2.70;;
20729;SDS011;10526;50.850;12.928;2023-04-30T11:06:22;10.18;;;2.83;;
20729;SDS011;10526;50.850;12.928;2023-04-30T11:10:56;6.95;;;2.38;;
20729;SDS011;10526;50.850;12.928;2023-04-30T11:15:26;5.13;;;1.90;;
20729;SDS011;10526;50.850;12.928;2023-04-30T11:20:09;8.18;;;2.38;;
20729;SDS011;10526;50.850;12.928;2023-04-30T11:25:21;7.93;;;2.58;;
20729;SDS011;10526;50.850;12.928;2023-04-30T11:29:20;13.90;;;2.97;;
20729;SDS011;10526;50.850;12.928;2023-04-30T11:33:44;9.13;;;2.92;;
20729;SDS011;10526;50.850;12.928;2023-04-30T11:38:06;11.38;;;3.67;;
20729;SDS011;10526;50.850;12.928;2023-04-30T11:42:29;10.00;;;3.10;;
20729;SDS011;10526;50.850;12.928;2023-04-30T11:46:54;14.05;;;3.20;;
20729;SDS011;10526;50.850;12.928;2023-04-30T11:51:20;10.98;;;3.30;;
20729;SDS011;10526;50.850;12.928;2023-04-30T11:55:47;10.75;;;3.83;;
20729;SDS011;10526;50.850;12.928;2023-04-30T12:00:10;11.65;;;3.30;;
20729;SDS011;10526;50.850;12.928;2023-04-30T12:04:35;10.75;;;3.17;;
20729;SDS011;10526;50.850;12.928;2023-04-30T12:08:58;11.27;;;3.55;;
20729;SDS011;10526;50.850;12.928;2023-04-30T12:13:24;10.82;;;3.25;;
20729;SDS011;10526;50.850;12.928;2023-04-30T12:17:46;8.43;;;3.20;;
20729;SDS011;10526;50.850;12.928;2023-04-30T12:22:09;9.40;;;2.92;;
20729;SDS011;10526;50.850;12.928;2023-04-30T12:26:34;12.07;;;5.05;;
20729;SDS011;10526;50.850;12.928;2023-04-30T12:30:59;9.63;;;3.30;;
20729;SDS011;10526;50.850;12.928;2023-04-30T12:35:22;12.15;;;3.28;;
20729;SDS011;10526;50.850;12.928;2023-04-30T12:39:48;8.65;;;2.83;;
20729;SDS011;10526;50.850;12.928;2023-04-30T12:44:14;10.85;;;3.30;;
20729;SDS011;10526;50.850;12.928;2023-04-30T12:48:43;14.50;;;3.63;;
20729;SDS011;10526;50.850;12.928;2023-04-30T12:53:06;8.98;;;2.92;;
20729;SDS011;10526;50.850;12.928;2023-04-30T12:57:29;10.20;;;2.90;;
20729;SDS011;10526;50.850;12.928;2023-04-30T13:01:51;10.20;;;3.40;;
20729;SDS011;10526;50.850;12.928;2023-04-30T13:06:15;7.28;;;2.72;;
20729;SDS011;10526;50.850;12.928;2023-04-30T13:10:38;24.23;;;11.77;;
20729;SDS011;10526;50.850;12.928;2023-04-30T13:15:00;8.70;;;2.38;;
20729;SDS011;10526;50.850;12.928;2023-04-30T13:19:24;13.93;;;2.70;;
20729;SDS011;10526;50.850;12.928;2023-04-30T13:23:46;19.10;;;3.10;;
20729;SDS011;10526;50.850;12.928;2023-04-30T13:28:14;9.25;;;2.80;;
20729;SDS011;10526;50.850;12.928;2023-04-30T13:32:37;11.82;;;2.72;;
20729;SDS011;10526;50.850;12.928;2023-04-30T13:36:59;10.00;;;2.83;;
20729;SDS011;10526;50.850;12.928;2023-04-30T13:41:21;7.57;;;2.30;;
20729;SDS011;10526;50.850;12.928;2023-04-30T13:45:43;7.15;;;2.20;;
20729;SDS011;10526;50.850;12.928;2023-04-30T13:50:05;8.73;;;2.75;;
20729;SDS011;10526;50.850;12.928;2023-04-30T13:54:30;7.10;;;2.33;;
20729;SDS011;10526;50.850;12.928;2023-04-30T13:58:53;8.20;;;2.15;;
20729;SDS011;10526;50.850;12.928;2023-04-30T14:03:15;7.85;;;2.65;;
20729;SDS011;10526;50.850;12.928;2023-04-30T14:07:38;9.77;;;1.80;;
20729;SDS011;10526;50.850;12.928;2023-04-30T14:12:00;7.40;;;2.50;;
20729;SDS011;10526;50.850;12.928;2023-04-30T14:16:23;6.88;;;2.05;;
20729;SDS011;10526;50.850;12.928;2023-04-30T14:20:46;6.38;;;2.15;;
20729;SDS011;10526;50.850;12.928;2023-04-30T14:25:09;8.30;;;2.40;;
20729;SDS011;10526;50.850;12.928;2023-04-30T14:29:32;6.82;;;2.03;;
20729;SDS011;10526;50.850;12.928;2023-04-30T14:33:54;7.13;;;2.10;;
20729;SDS011;10526;50.850;12.928;2023-04-30T14:38:16;5.80;;;1.98;;
20729;SDS011;10526;50.850;12.928;2023-04-30T14:42:38;6.38;;;2.20;;
20729;SDS011;10526;50.850;12.928;2023-04-30T14:47:01;7.00;;;2.10;;
20729;SDS011;10526;50.850;12.928;2023-04-30T14:51:24;8.13;;;2.33;;
20729;SDS011;10526;50.850;12.928;2023-04-30T14:55:46;7.53;;;2.20;;
20729;SDS011;10526;50.850;12.928;2023-04-30T15:00:09;9.13;;;2.60;;
20729;SDS011;10526;50.850;12.928;2023-04-30T15:04:32;6.00;;;2.30;;
20729;SDS011;10526;50.850;12.928;2023-04-30T15:08:54;8.10;;;2.33;;
20729;SDS011;10526;50.850;12.928;2023-04-30T15:13:16;6.63;;;2.40;;
20729;SDS011;10526;50.850;12.928;2023-04-30T15:17:39;5.85;;;1.85;;
20729;SDS011;10526;50.850;12.928;2023-04-30T15:22:01;4.60;;;1.85;;
20729;SDS011;10526;50.850;12.928;2023-04-30T15:26:23;9.77;;;2.45;;
20729;SDS011;10526;50.850;12.928;2023-04-30T15:30:45;9.93;;;2.47;;
20729;SDS011;10526;50.850;12.928;2023-04-30T15:35:08;7.43;;;2.28;;
20729;SDS011;10526;50.850;12.928;2023-04-30T15:39:30;8.00;;;2.30;;
20729;SDS011;10526;50.850;12.928;2023-04-30T15:43:52;10.00;;;2.58;;
20729;SDS011;10526;50.850;12.928;2023-04-30T15:48:15;7.10;;;2.33;;
20729;SDS011;10526;50.850;12.928;2023-04-30T15:52:36;7.18;;;2.83;;
20729;SDS011;10526;50.850;12.928;2023-04-30T15:57:00;10.32;;;2.67;;
20729;SDS011;10526;50.850;12.928;2023-04-30T16:01:24;9.50;;;2.15;;
20729;SDS011;10526;50.850;12.928;2023-04-30T16:05:46;11.70;;;2.42;;
20729;SDS011;10526;50.850;12.928;2023-04-30T16:10:09;8.23;;;2.75;;
20729;SDS011;10526;50.850;12.928;2023-04-30T16:14:32;7.20;;;2.53;;
20729;SDS011;10526;50.850;12.928;2023-04-30T16:18:54;11.80;;;3.60;;
20729;SDS011;10526;50.850;12.928;2023-04-30T16:23:16;8.63;;;2.85;;
20729;SDS011;10526;50.850;12.928;2023-04-30T16:27:39;10.75;;;2.75;;
20729;SDS011;10526;50.850;12.928;2023-04-30T16:32:03;9.00;;;3.10;;
20729;SDS011;10526;50.850;12.928;2023-04-30T16:36:26;10.23;;;2.65;;
20729;SDS011;10526;50.850;12.928;2023-04-30T16:40:48;12.10;;;3.13;;
20729;SDS011;10526;50.850;12.928;2023-04-30T16:45:11;7.30;;;2.53;;
20729;SDS011;10526;50.850;12.928;2023-04-30T16:49:33;9.82;;;2.83;;
20729;SDS011;10526;50.850;12.928;2023-04-30T16:53:55;8.10;;;2.20;;
20729;SDS011;10526;50.850;12.928;2023-04-30T16:58:18;13.43;;;2.60;;
20729;SDS011;10526;50.850;12.928;2023-04-30T17:02:40;10.50;;;1.77;;
20729;SDS011;10526;50.850;12.928;2023-04-30T17:07:05;10.63;;;1.98;;
20729;SDS011;10526;50.850;12.928;2023-04-30T17:11:27;4.97;;;1.92;;
20729;SDS011;10526;50.850;12.928;2023-04-30T17:15:51;4.88;;;2.00;;
20729;SDS011;10526;50.850;12.928;2023-04-30T17:20:16;5.68;;;1.90;;
20729;SDS011;10526;50.850;12.928;2023-04-30T17:24:38;3.60;;;1.70;;
20729;SDS011;10526;50.850;12.928;2023-04-30T17:29:00;6.25;;;2.00;;
20729;SDS011;10526;50.850;12.928;2023-04-30T17:33:22;5.80;;;1.90;;
20729;SDS011;10526;50.850;12.928;2023-04-30T17:37:46;29.85;;;6.85;;
20729;SDS011;10526;50.850;12.928;2023-04-30T17:42:09;8.60;;;2.53;;
20729;SDS011;10526;50.850;12.928;2023-04-30T17:46:33;10.45;;;3.10;;
20729;SDS011;10526;50.850;12.928;2023-04-30T17:50:56;4.97;;;1.90;;
20729;SDS011;10526;50.850;12.928;2023-04-30T17:55:18;6.00;;;1.95;;
20729;SDS011;10526;50.850;12.928;2023-04-30T17:59:40;6.20;;;2.00;;
20729;SDS011;10526;50.850;12.928;2023-04-30T18:04:05;8.10;;;1.90;;
20729;SDS011;10526;50.850;12.928;2023-04-30T18:08:29;5.40;;;2.08;;
20729;SDS011;10526;50.850;12.928;2023-04-30T18:12:51;8.73;;;2.25;;
20729;SDS011;10526;50.850;12.928;2023-04-30T18:17:13;28.88;;;12.25;;
20729;SDS011;10526;50.850;12.928;2023-04-30T18:21:35;9.13;;;2.38;;
20729;SDS011;10526;50.850;12.928;2023-04-30T18:25:58;8.63;;;3.13;;
20729;SDS011;10526;50.850;12.928;2023-04-30T18:30:21;8.40;;;2.67;;
20729;SDS011;10526;50.850;12.928;2023-04-30T18:34:43;13.45;;;3.90;;
20729;SDS011;10526;50.850;12.928;2023-04-30T18:39:06;10.70;;;4.30;;
20729;SDS011;10526;50.850;12.928;2023-04-30T18:43:29;16.92;;;6.10;;
20729;SDS011;10526;50.850;12.928;2023-04-30T18:47:51;13.70;;;5.35;;
20729;SDS011;10526;50.850;12.928;2023-04-30T18:52:14;14.05;;;5.38;;
20729;SDS011;10526;50.850;12.928;2023-04-30T18:56:36;19.73;;;4.88;;
20729;SDS011;10526;50.850;12.928;2023-04-30T19:00:59;15.90;;;6.57;;
20729;SDS011;10526;50.850;12.928;2023-04-30T19:05:21;14.68;;;5.93;;
20729;SDS011;10526;50.850;12.928;2023-04-30T19:09:44;21.77;;;6.38;;
20729;SDS011;10526;50.850;12.928;2023-04-30T19:14:08;16.80;;;7.07;;
20729;SDS011;10526;50.850;12.928;2023-04-30T19:18:30;32.60;;;11.15;;
20729;SDS011;10526;50.850;12.928;2023-04-30T19:22:55;26.88;;;8.88;;
20729;SDS011;10526;50.850;12.928;2023-04-30T19:27:17;26.20;;;7.78;;
20729;SDS011;10526;50.850;12.928;2023-04-30T19:31:39;18.85;;;9.02;;
20729;SDS011;10526;50.850;12.928;2023-04-30T19:36:02;25.85;;;11.30;;
20729;SDS011;10526;50.850;12.928;2023-04-30T19:40:24;30.58;;;13.25;;
20729;SDS011;10526;50.850;12.928;2023-04-30T19:44:49;20.10;;;9.00;;
20729;SDS011;10526;50.850;12.928;2023-04-30T19:49:14;29.63;;;13.50;;
20729;SDS011;10526;50.850;12.928;2023-04-30T19:53:38;32.92;;;16.13;;
20729;SDS011;10526;50.850;12.928;2023-04-30T19:58:00;45.30;;;18.92;;
20729;SDS011;10526;50.850;12.928;2023-04-30T20:02:25;33.80;;;15.60;;
20729;SDS011;10526;50.850;12.928;2023-04-30T20:06:47;37.30;;;18.75;;
20729;SDS011;10526;50.850;12.928;2023-04-30T20:11:17;40.90;;;18.88;;
20729;SDS011;10526;50.850;12.928;2023-04-30T20:15:41;46.42;;;20.52;;
20729;SDS011;10526;50.850;12.928;2023-04-30T20:20:04;41.03;;;18.48;;
20729;SDS011;10526;50.850;12.928;2023-04-30T20:24:27;38.35;;;19.50;;
20729;SDS011;10526;50.850;12.928;2023-04-30T20:28:50;44.47;;;18.02;;
20729;SDS011;10526;50.850;12.928;2023-04-30T20:33:13;42.65;;;22.60;;
20729;SDS011;10526;50.850;12.928;2023-04-30T20:37:36;40.05;;;18.42;;
20729;SDS011;10526;50.850;12.928;2023-04-30T20:41:58;39.38;;;18.77;;
20729;SDS011;10526;50.850;12.928;2023-04-30T20:46:22;35.97;;;19.38;;
20729;SDS011;10526;50.850;12.928;2023-04-30T20:50:44;37.08;;;17.48;;
20729;SDS011;10526;50.850;12.928;2023-04-30T20:55:07;41.88;;;18.73;;
20729;SDS011;10526;50.850;12.928;2023-04-30T20:59:31;39.63;;;20.75;;
20729;SDS011;10526;50.850;12.928;2023-04-30T21:03:55;38.75;;;20.20;;
20729;SDS011;10526;50.850;12.928;2023-04-30T21:08:17;42.35;;;22.40;;
20729;SDS011;10526;50.850;12.928;2023-04-30T21:12:39;32.55;;;16.05;;
20729;SDS011;10526;50.850;12.928;2023-04-30T21:17:02;36.20;;;14.77;;
20729;SDS011;10526;50.850;12.928;2023-04-30T21:21:25;28.90;;;13.55;;
20729;SDS011;10526;50.850;12.928;2023-04-30T21:25:47;25.08;;;12.50;;
20729;SDS011;10526;50.850;12.928;2023-04-30T21:30:14;23.15;;;11.43;;
20729;SDS011;10526;50.850;12.928;2023-04-30T21:34:37;32.33;;;12.02;;
20729;SDS011;10526;50.850;12.928;2023-04-30T21:38:59;21.38;;;8.75;;
20729;SDS011;10526;50.850;12.928;2023-04-30T21:43:21;22.15;;;9.65;;
20729;SDS011;10526;50.850;12.928;2023-04-30T21:47:45;18.67;;;8.85;;
20729;SDS011;10526;50.850;12.928;2023-04-30T21:52:08;17.15;;;7.68;;
20729;SDS011;10526;50.850;12.928;2023-04-30T21:56:30;18.15;;;8.27;;
20729;SDS011;10526;50.850;12.928;2023-04-30T22:00:52;22.92;;;8.77;;
20729;SDS011;10526;50.850;12.928;2023-04-30T22:05:15;22.40;;;9.75;;
20729;SDS011;10526;50.850;12.928;2023-04-30T22:09:39;23.00;;;11.10;;
20729;SDS011;10526;50.850;12.928;2023-04-30T22:14:01;25.80;;;11.80;;
20729;SDS011;10526;50.850;12.928;2023-04-30T22:18:24;28.90;;;12.27;;
20729;SDS011;10526;50.850;12.928;2023-04-30T22:22:46;29.42;;;13.02;;
20729;SDS011;10526;50.850;12.928;2023-04-30T22:27:08;23.83;;;12.38;;
20729;SDS011;10526;50.850;12.928;2023-04-30T22:31:30;30.33;;;13.32;;
20729;SDS011;10526;50.850;12.928;2023-04-30T22:35:53;29.15;;;13.70;;
20729;SDS011;10526;50.850;12.928;2023-04-30T22:40:16;27.95;;;13.18;;
20729;SDS011;10526;50.850;12.928;2023-04-30T22:44:38;26.38;;;11.73;;
20729;SDS011;10526;50.850;12.928;2023-04-30T22:49:00;26.27;;;11.15;;
20729;SDS011;10526;50.850;12.928;2023-04-30T22:53:23;28.48;;;11.88;;
20729;SDS011;10526;50.850;12.928;2023-04-30T22:57:46;24.45;;;11.70;;
20729;SDS011;10526;50.850;12.928;2023-04-30T23:02:07;24.73;;;11.48;;
20729;SDS011;10526;50.850;12.928;2023-04-30T23:06:32;23.60;;;11.15;;
20729;SDS011;10526;50.850;12.928;2023-04-30T23:10:55;27.23;;;12.05;;
20729;SDS011;10526;50.850;12.928;2023-04-30T23:15:17;25.48;;;11.07;;
20729;SDS011;10526;50.850;12.928;2023-04-30T23:19:39;30.25;;;11.63;;
20729;SDS011;10526;50.850;12.928;2023-04-30T23:24:01;23.38;;;11.43;;
20729;SDS011;10526;50.850;12.928;2023-04-30T23:28:24;27.17;;;11.57;;
20729;SDS011;10526;50.850;12.928;2023-04-30T23:32:47;27.27;;;12.43;;
20729;SDS011;10526;50.850;12.928;2023-04-30T23:37:09;28.42;;;11.93;;
20729;SDS011;10526;50.850;12.928;2023-04-30T23:41:31;25.98;;;12.27;;
20729;SDS011;10526;50.850;12.928;2023-04-30T23:45:54;29.75;;;12.80;;
20729;SDS011;10526;50.850;12.928;2023-04-30T23:50:20;26.45;;;13.38;;
20729;SDS011;10526;50.850;12.928;2023-04-30T23:54:42;29.02;;;13.50;;
20729;SDS011;10526;50.850;12.928;2023-04-30T23:59:04;27.05;;;13.57;;
